Tiempo atmosférico en la estación meteorológica de Sabiñanigo, Huesca (775 m.)



Fecha
DESCASC
Temp. máxima en grados centígrados (hora)
DESCASC
Temp. mínima en grados centígrados (hora)
DESCASC
Temp. media en grados centígrados
DESCASC
Racha de viento máxima en m/sg (hora)
DESCASC
Velocidad máxima media en intervalos de 10 minutos(hora)
DESCASC
Precipitaciones diarias en mm
DESCASC
Precipitaciones de 00:00 a 06:00 en mm
DESCASC
Precipitaciones de 06:00 a 12:00 en mm
DESCASC
Precipitaciones de 12:00 a 18:00 en mm
DESCASC
Precipitaciones de 18:00 a 24:00 en mm
DESCASC
31-03-2020 9.7 (13:50) 0.1 (05:20) 4.9 6.67 (14:20) 4.17 (14:20) 3.8 1.2 0 1.4 1.2
30-03-2020 8 (15:20) 1.2 (08:10) 4.6 8.33 (03:00) 4.17 (03:00) 0.2 0 0 0 0.2
29-03-2020 17 (15:40) 0.1 (00:00) 8.6 11.67 (17:40) 6.39 (17:30) 0 0 0 0 0
28-03-2020 16.9 (16:20) 0.8 (00:00) 8.8 7.22 (17:50) 4.44 (15:50) 0 0 0 0 0
27-03-2020 13.6 (17:00) -0.7 (-00:0) 6.5 6.39 (11:50) 3.89 (11:50) 0.8 0.8 0 0 0
26-03-2020 12 (15:30) 0.8 (00:00) 6.4 10 (17:50) 5.83 (17:50) 0.8 0 0 0 0.8
25-03-2020 8.1 (00:00) 4.4 (00:00) 6.3 6.39 (12:40) 2.78 (10:00) 2.4 0 1.4 1 0
24-03-2020 15.2 (16:40) 6.6 (00:00) 10.9 7.78 (17:40) 4.44 (17:40) 0.2 0 0 0 0.2
23-03-2020 14.4 (13:10) 5.9 (00:00) 10.1 6.67 (14:40) 3.33 (14:40) 2.2 1.4 0 0.6 0.2
22-03-2020 15.8 (16:30) 4.4 (07:30) 10.1 6.94 (18:50) 4.44 (18:50) 7.2 0 0 0 7.2
21-03-2020 17.4 (15:50) 2.5 (00:00) 9.9 6.11 (16:30) 3.06 (16:50) 0 0 0 0 0
20-03-2020 17.9 (14:50) 4.6 (00:00) 11.2 7.22 (15:00) 4.17 (11:30) 0 0 0 0 0
19-03-2020 20.2 (14:10) 4.7 (00:00) 12.5 8.89 (16:40) 4.72 (14:50) 0 0 0 0 0
18-03-2020 15.9 (14:40) 3.8 (00:00) 9.8 3.89 (17:10) 2.5 (17:10) 0 0 0 0 0
17-03-2020 12.9 (17:10) 6.5 (00:00) 9.7 2.78 (02:50) 1.39 (11:40) 0 0 0 0 0
16-03-2020 11.1 (18:20) 6 (00:00) 8.6 8.89 (00:10) 4.44 (00:10) 15.4 10.4 5 0 0
15-03-2020 20 (15:30) 1.5 (00:00) 10.8 11.67 (23:20) 6.11 (17:10) 0.6 0 0 0 0.6
14-03-2020 17.2 (16:50) 4 (00:00) 10.6 7.22 (16:40) 4.17 (16:10) 0 0 0 0 0
13-03-2020 14.2 (15:00) 7.7 (06:50) 10.9 6.67 (17:10) 4.17 (17:00) 0.2 0.2 0 0 0
12-03-2020 25.1 (15:00) 4.1 (00:00) 14.6 6.67 (18:40) 4.17 (18:30) 0 0 0 0 0
11-03-2020 23.1 (15:20) 0.2 (00:00) 11.7 6.11 (15:30) 3.61 (16:10) 0 0 0 0 0
10-03-2020 20.1 (17:00) 0.8 (00:00) 10.5 7.5 (16:00) 4.17 (16:00) 0 0 0 0 0
09-03-2020 12 (15:00) 4.3 (00:00) 8.2 15.28 (11:10) 7.78 (12:50) 0 0 0 0 0
08-03-2020 15.9 (15:30) -1.3 (-00:0) 7.3 8.61 (17:20) 5.28 (17:20) 0 0 0 0 0
07-03-2020 11.9 (15:30) -0.8 (-00:0) 5.5 12.78 (16:00) 6.94 (15:50) 0 0 0 0 0
06-03-2020 4.2 (11:30) 0 (00:00) 2.1 13.33 (11:30) 6.94 (11:30) 17 0 0.6 7.6 8.8
05-03-2020 10.4 (16:00) 3.5 (00:00) 6.9 14.72 (14:40) 6.94 (14:40) 5.4 0 2.2 3.2 0
04-03-2020 15.2 (16:30) 2.2 (00:00) 8.7 10.28 (14:40) 5.28 (14:40) 4.2 0 4.2 0 0
03-03-2020 8.7 (17:50) 0.6 (00:00) 4.6 11.11 (17:30) 5.28 (17:20) 11.4 0 8.8 2.6 0
02-03-2020 10.8 (06:20) 1.5 (00:00) 6.2 21.39 (06:50) 9.17 (06:50) 18.2 14.4 3.4 0.4 0

Gráficas

Temp. máximas Temp. mínimas Temp. medias Precipitaciones Rachas de viento máximas Velocidades máximas media en intervalos de 10 minutos

Datos horarios

Fecha y hora oficial Temperatura (ºC) Velocidad del viento (km/h) Dirección del viento Racha (km/h) Dirección de racha Precipitación (mm) Presión (hPa) Tendencia (hPa) Humedad (%)
2020-03-31 23:00:00 6.5 3 Sur 7 Sur 0 -- -- 94
2020-03-31 22:00:00 6.5 4 Sur 9 Sur 0 -- -- 93
2020-03-31 21:00:00 6.9 0 Calma 6 Noroeste 0.2 -- -- 91
2020-03-31 20:00:00 7.4 0 Calma 5 Sudoeste 0.2 -- -- 88
2020-03-31 19:00:00 7.6 4 Sur 7 Sudoeste 0.6 -- -- 87
2020-03-31 18:00:00 8 3 Sudoeste 8 Nordeste 0.6 -- -- 84
2020-03-31 17:00:00 8.3 8 Este 22 Este 0.6 -- -- 77
2020-03-31 16:00:00 8.9 12 Sudeste 24 Este 0.2 -- -- 77
2020-03-31 15:00:00 9.3 8 Este 24 Nordeste 0 -- -- 73
2020-03-31 14:00:00 9.7 5 Este 16 Este 0 -- -- 73
2020-03-31 13:00:00 8.5 4 Sur 17 Sudoeste 0 -- -- 80
2020-03-31 12:00:00 7 2 Nordeste 10 Sur 0 -- -- 93
2020-03-31 11:00:00 4.9 4 Sur 10 Sudeste 0 -- -- 98
2020-03-31 10:00:00 2.6 5 Sur 9 Sur 0 -- -- 96
2020-03-31 09:00:00 1.4 0 Calma 5 Este 0 -- -- 96
2020-03-31 08:00:00 0.8 2 Nordeste 5 Este 0 -- -- 95
2020-03-31 07:00:00 0.5 0 Calma 13 Oeste 0 -- -- 94
2020-03-31 06:00:00 0.3 5 Oeste 10 Oeste 0.6 -- -- 94
2020-03-31 05:00:00 0.2 3 Oeste 12 Oeste 0.2 -- -- 94
2020-03-31 04:00:00 0.3 5 Oeste 10 Oeste 0.4 -- -- 93
2020-03-31 03:00:00 0.4 5 Sudoeste 10 Sudoeste 0 -- -- 93
2020-03-31 02:00:00 0.5 8 Oeste 16 Sudoeste 0 -- -- 91
2020-03-31 01:00:00 1.4 7 Oeste 10 Oeste 0 -- -- 91
2020-03-31 00:00:00 2.2 3 Sudoeste 9 Sudoeste 0.2 -- -- 86
2020-03-30 23:00:00 3.2 6 Sudoeste 10 Noroeste 0 -- -- 76
2020-03-30 22:00:00 3.5 0 Calma 19 Este 0 -- -- 75
2020-03-30 21:00:00 4.7 6 Sudeste 20 Sudoeste 0 -- -- 58
2020-03-30 20:00:00 5.1 9 Oeste 16 Oeste 0 -- -- 43
2020-03-30 19:00:00 5.7 8 Oeste 17 Oeste 0 -- -- 38
2020-03-30 18:00:00 6.1 12 Oeste 22 Oeste 0 -- -- 37
2020-03-30 17:00:00 6.3 14 Oeste 25 Oeste 0 -- -- 34
2020-03-30 16:00:00 7.4 12 Oeste 24 Oeste 0 -- -- 32
2020-03-30 15:00:00 7.9 14 Oeste 27 Oeste 0 -- -- 32
2020-03-30 14:00:00 6.9 8 Sudeste 14 Sudeste 0 -- -- 45
2020-03-30 13:00:00 6.3 6 Sur 13 Sur 0 -- -- 46
2020-03-30 12:00:00 4.6 4 Este 11 Sudeste 0 -- -- 54
2020-03-30 11:00:00 2.9 7 Oeste 17 Oeste 0 -- -- 54
2020-03-30 10:00:00 2.1 3 Sur 6 Nordeste 0 -- -- 70
2020-03-30 09:00:00 1.3 3 Sur 18 Oeste 0 -- -- 72
2020-03-30 08:00:00 1.3 9 Oeste 20 Oeste 0 -- -- 71
2020-03-30 07:00:00 1.6 8 Oeste 21 Noroeste 0 -- -- 73
2020-03-30 06:00:00 2 6 Oeste 16 Noroeste 0 -- -- 73
2020-03-30 05:00:00 2.8 3 Oeste 22 Oeste 0 -- -- 74
2020-03-30 04:00:00 3.2 10 Oeste 27 Oeste 0 -- -- 75
2020-03-30 03:00:00 3.8 15 Oeste 30 Oeste 0 -- -- 78
2020-03-30 02:00:00 5.1 10 Oeste 23 Oeste 0 -- -- 77
2020-03-30 01:00:00 5.6 3 Nordeste 12 Nordeste 0 -- -- 81
2020-03-30 00:00:00 6.1 0 Calma 12 Oeste 0 -- -- 77
2020-03-29 23:00:00 6.7 11 Oeste 18 Oeste 0 -- -- 73
2020-03-29 22:00:00 8 6 Oeste 12 Noroeste 0 -- -- 63
2020-03-29 21:00:00 9.9 2 Sudoeste 23 Norte 0 -- -- 51
2020-03-29 20:00:00 11.5 11 Norte 24 Oeste 0 -- -- 46
2020-03-29 19:00:00 13.9 16 Oeste 36 Oeste 0 -- -- 39
2020-03-29 18:00:00 14.9 19 Oeste 42 Oeste 0 -- -- 39
2020-03-29 17:00:00 16.3 18 Oeste 29 Oeste 0 -- -- 33
2020-03-29 16:00:00 16.4 14 Oeste 24 Noroeste 0 -- -- 34
2020-03-29 15:00:00 16.4 10 Oeste 20 Sudoeste 0 -- -- 36
2020-03-29 14:00:00 14.5 11 Noroeste 21 Noroeste 0 -- -- 38
2020-03-29 13:00:00 12.8 6 Este 12 Oeste 0 -- -- 49
2020-03-29 12:00:00 9.7 4 Sudoeste 10 Sudeste 0 -- -- 60
2020-03-29 11:00:00 6.7 4 Sudeste 12 Sudeste 0 -- -- 71
2020-03-29 10:00:00 3 2 Nordeste 5 Este 0 -- -- 93
2020-03-29 09:00:00 0.6 2 Norte 5 Nordeste 0 -- -- 94
2020-03-29 08:00:00 0.2 0 Calma 4 Sudoeste 0 -- -- 94
2020-03-29 07:00:00 0.5 0 Calma 3 Nordeste 0 -- -- 93
2020-03-29 06:00:00 1.1 0 Calma 3 Este 0 -- -- 92
2020-03-29 05:00:00 1.5 0 Calma 3 Nordeste 0 -- -- 91
2020-03-29 03:00:00 3.1 2 Sudeste 4 Este 0 -- -- 87
2020-03-29 01:00:00 4.2 0 Calma 5 Sudeste 0 -- -- 82
2020-03-29 00:00:00 5.8 0 Calma 6 Este 0 -- -- 78
2020-03-28 23:00:00 6.6 2 Nordeste 7 Nordeste 0 -- -- 75
2020-03-28 22:00:00 8.8 2 Norte 8 Oeste 0 -- -- 64
2020-03-28 21:00:00 10.7 5 Oeste 10 Sudoeste 0 -- -- 56
2020-03-28 20:00:00 12.6 5 Oeste 16 Sudoeste 0 -- -- 46
2020-03-28 19:00:00 14.3 9 Oeste 26 Oeste 0 -- -- 40
2020-03-28 18:00:00 16.4 14 Oeste 26 Oeste 0 -- -- 34
2020-03-28 17:00:00 16.7 12 Oeste 23 Oeste 0 -- -- 30
2020-03-28 16:00:00 16.3 13 Oeste 24 Oeste 0 -- -- 30
2020-03-28 15:00:00 16.4 12 Oeste 22 Oeste 0 -- -- 27
2020-03-28 14:00:00 15.6 12 Oeste 24 Oeste 0 -- -- 33
2020-03-28 13:00:00 14.1 8 Oeste 17 Oeste 0 -- -- 43
2020-03-28 12:00:00 13.3 6 Este 13 Este 0 -- -- 45
2020-03-28 11:00:00 10.1 3 Noroeste 8 Nordeste 0 -- -- 54
2020-03-28 10:00:00 6.6 3 Sudeste 6 Sudeste 0 -- -- 67
2020-03-28 09:00:00 3.7 3 Nordeste 5 Sudeste 0 -- -- 90
2020-03-28 08:00:00 1.3 0 Calma 4 Sur 0 -- -- 93
2020-03-28 07:00:00 1 0 Calma 6 Sur 0 -- -- 91
2020-03-28 06:00:00 1.9 2 Sur 5 Sudoeste 0 -- -- 89
2020-03-28 05:00:00 3 0 Calma 4 Sur 0 -- -- 87
2020-03-28 04:00:00 2.8 0 Calma 5 Sur 0 -- -- 87
2020-03-28 03:00:00 2.5 0 Calma 11 Este 0 -- -- 88
2020-03-28 02:00:00 1.9 3 Este 9 Sudeste 0 -- -- 89
2020-03-28 01:00:00 2.1 0 Calma 5 Sudeste 0 -- -- 87
2020-03-28 00:00:00 3 0 Calma 6 Este 0 -- -- 82
2020-03-27 23:00:00 4.2 0 Calma 13 Este 0 -- -- 77
2020-03-27 22:00:00 5.1 0 Calma 9 Este 0 -- -- 74
2020-03-27 21:00:00 6.9 0 Calma 10 Sudeste 0 -- -- 66
2020-03-27 20:00:00 8.8 3 Este 14 Sur 0 -- -- 58
2020-03-27 19:00:00 11 6 Sudoeste 13 Sudoeste 0 -- -- 38
2020-03-27 18:00:00 13.3 5 Sur 13 Sur 0 -- -- 28
2020-03-27 17:00:00 13.6 5 Sudeste 13 Sur 0 -- -- 33
2020-03-27 16:00:00 12.2 4 Nordeste 14 Sudeste 0 -- -- 32
2020-03-27 15:00:00 12 5 Sudeste 14 Sudeste 0 -- -- 31
2020-03-27 14:00:00 9.8 8 Sur 20 Sudeste 0 -- -- 47
2020-03-27 13:00:00 7.7 9 Sur 21 Sur 0 -- -- 65
2020-03-27 12:00:00 4.6 13 Sur 23 Sur 0 -- -- 80
2020-03-27 11:00:00 2.7 11 Sur 22 Sudeste 0 -- -- 89
2020-03-27 10:00:00 0.9 2 Este 8 Sudeste 0 -- -- 93
2020-03-27 09:00:00 -0.2 0 Calma 3 Sudeste 0 -- -- 97
2020-03-27 08:00:00 -0.5 0 Calma -- -- 0 -- -- 97
2020-03-27 07:00:00 -0.3 0 Calma -- -- 0 -- -- 97
2020-03-27 06:00:00 0 0 Calma -- -- 0 -- -- 97
2020-03-27 05:00:00 0.1 0 Calma -- -- 0 -- -- 96
2020-03-27 04:00:00 0.2 0 Calma -- -- 0 -- -- 96
2020-03-27 03:00:00 0.5 0 Calma 5 Nordeste 0 -- -- 95
2020-03-27 02:00:00 0.7 0 Calma 6 Este 0.2 -- -- 94
2020-03-27 01:00:00 0.9 0 Calma 6 Este 0.6 -- -- 93
2020-03-27 00:00:00 1.4 8 Este 22 Este 0.8 -- -- 92
2020-03-26 23:00:00 3 13 Este 21 Este 0 -- -- 84
2020-03-26 22:00:00 4.1 9 Este 19 Este 0 -- -- 77
2020-03-26 21:00:00 5.5 7 Sur 21 Sur 0 -- -- 50
2020-03-26 20:00:00 7 12 Sudeste 30 Este 0 -- -- 50
2020-03-26 19:00:00 7.6 15 Norte 32 Norte 0 -- -- 30
2020-03-26 18:00:00 9.2 19 Norte 36 Norte 0 -- -- 27
2020-03-26 17:00:00 10.7 17 Norte 30 Norte 0 -- -- 23
2020-03-26 16:00:00 11.6 8 Norte 20 Noroeste 0 -- -- 15
2020-03-26 15:00:00 11.4 9 Oeste 26 Noroeste 0 -- -- 21
2020-03-26 14:00:00 10.5 9 Norte 24 Norte 0 -- -- 21
2020-03-26 13:00:00 10 9 Oeste 20 Norte 0 -- -- 23
2020-03-26 12:00:00 8.5 13 Noroeste 27 Sudoeste 0 -- -- 28
2020-03-26 11:00:00 7.3 18 Sudoeste 33 Sudoeste 0 -- -- 36
2020-03-26 10:00:00 4.5 6 Oeste 14 Oeste 0 -- -- 59
2020-03-26 09:00:00 2.2 4 Sudeste 8 Sudeste 0 -- -- 92
2020-03-26 08:00:00 1.6 3 Sudeste 6 Sudeste 0 -- -- 93
2020-03-26 07:00:00 1.1 0 Calma 8 Este 0 -- -- 94
2020-03-26 06:00:00 0.9 2 Sudeste 6 Este 0 -- -- 94
2020-03-26 05:00:00 0.9 0 Calma 6 Sur 0 -- -- 93
2020-03-26 04:00:00 1.3 5 Oeste 13 Oeste 0 -- -- 91
2020-03-26 03:00:00 2 6 Sudoeste 18 Sudoeste 0 -- -- 89
2020-03-26 02:00:00 3.4 6 Sudoeste 14 Sudoeste 0 -- -- 89
2020-03-26 01:00:00 4 5 Sur 13 Sur 0 -- -- 91
2020-03-26 00:00:00 4.4 5 Sur 12 Sudoeste 0 -- -- 91
2020-03-25 23:00:00 4.7 3 Sur 10 Sudoeste 0 -- -- 89
2020-03-25 22:00:00 4.8 3 Sur 9 Sudeste 0 -- -- 90
2020-03-25 21:00:00 4.7 2 Sur 8 Sur 0 -- -- 89
2020-03-25 20:00:00 4.9 3 Sudeste 9 Sur 0 -- -- 90
2020-03-25 19:00:00 4.9 2 Sur 7 Sur 0 -- -- 88
2020-03-25 18:00:00 4.9 3 Sur 10 Sur 0.2 -- -- 89
2020-03-25 17:00:00 5.1 2 Sur 11 Sudeste 0 -- -- 89
2020-03-25 16:00:00 5.4 4 Sudeste 17 Sur 0.2 -- -- 89
2020-03-25 15:00:00 5.7 7 Sur 21 Sur 0.4 -- -- 86
2020-03-25 14:00:00 6.7 9 Sudeste 19 Sudeste 0.2 -- -- 83
2020-03-25 13:00:00 6.9 6 Sudeste 23 Sur 0 -- -- 80
2020-03-25 12:00:00 6.5 9 Sur 21 Sur 1.4 -- -- 84
2020-03-25 11:00:00 7.4 7 Sudeste 19 Sur 0 -- -- 78
2020-03-25 10:00:00 6.8 10 Sur 22 Sur 0 -- -- 81
2020-03-25 09:00:00 6.1 8 Sur 17 Sur 0 -- -- 86
2020-03-25 08:00:00 6 4 Sudeste 10 Sudeste 0 -- -- 88
2020-03-25 07:00:00 6 3 Sur 13 Sur 0 -- -- 88
2020-03-25 06:00:00 6.1 7 Sur 17 Sudeste 0 -- -- 87
2020-03-25 05:00:00 6.3 4 Sur 12 Sudeste 0 -- -- 86
2020-03-25 04:00:00 6.6 3 Sudeste 11 Sudeste 0 -- -- 88
2020-03-25 03:00:00 6.8 0 Calma 13 Sur 0 -- -- 86
2020-03-25 02:00:00 7.1 5 Sudeste 11 Sudeste 0 -- -- 86
2020-03-25 01:00:00 7.3 8 Sur 17 Sur 0 -- -- 87
2020-03-25 00:00:00 8.1 6 Sudeste 13 Sudeste 0 -- -- 87
2020-03-24 23:00:00 8.4 3 Sur 9 Sur 0 -- -- 90
2020-03-24 22:00:00 8.6 4 Sudeste 9 Sur 0.2 -- -- 90
2020-03-24 21:00:00 9.3 4 Sudeste 17 Sudeste 0 -- -- 85
2020-03-24 20:00:00 9.7 8 Sudeste 15 Sudeste 0 -- -- 82
2020-03-24 19:00:00 10 6 Sudeste 22 Este 0 -- -- 77
2020-03-24 18:00:00 11.1 13 Sudeste 28 Nordeste 0 -- -- 72
2020-03-24 17:00:00 14.7 9 Sudoeste 23 Sudoeste 0 -- -- 56
2020-03-24 16:00:00 14.3 9 Sudoeste 16 Sudoeste 0 -- -- 56
2020-03-24 15:00:00 14 5 Sudoeste 15 Oeste 0 -- -- 56
2020-03-24 14:00:00 14.1 4 Sur 14 Sudoeste 0 -- -- 58
2020-03-24 13:00:00 12.9 4 Sur 18 Sur 0 -- -- 63
2020-03-24 12:00:00 11.9 8 Sur 21 Sudeste 0 -- -- 71
2020-03-24 11:00:00 10.1 10 Sur 18 Sur 0 -- -- 80
2020-03-24 10:00:00 9.3 0 Calma 6 Este 0 -- -- 86
2020-03-24 09:00:00 7.9 0 Calma 3 Sudeste 0 -- -- 92
2020-03-24 08:00:00 7.2 0 Calma 4 Nordeste 0 -- -- 94
2020-03-24 07:00:00 7.1 0 Calma 4 Este 0 -- -- 93
2020-03-24 06:00:00 7 0 Calma 5 Sudoeste 0 -- -- 93
2020-03-24 05:00:00 6.9 0 Calma 4 Este 0 -- -- 93
2020-03-24 04:00:00 6.8 0 Calma 5 Este 0 -- -- 93
2020-03-24 03:00:00 6.8 0 Calma 4 Este 0 -- -- 92
2020-03-24 02:00:00 6.8 0 Calma 5 Noroeste 0 -- -- 92
2020-03-24 01:00:00 6.7 0 Calma 7 Sudeste 0 -- -- 92
2020-03-24 00:00:00 7.9 0 Calma 5 Sur 0 -- -- 91
2020-03-23 23:00:00 8.5 0 Calma 5 Sur 0 -- -- 90
2020-03-23 22:00:00 8.6 0 Calma 8 Sur 0 -- -- 89
2020-03-23 21:00:00 9.3 0 Calma 6 Sur 0 -- -- 85
2020-03-23 20:00:00 10.3 4 Sudeste 13 Sudeste 0.2 -- -- 78
2020-03-23 19:00:00 11.6 2 Sur 9 Sudoeste 0 -- -- 74
2020-03-23 18:00:00 11.7 0 Calma 10 Sur 0 -- -- 73
2020-03-23 17:00:00 12.4 5 Este 20 Este 0 -- -- 70
2020-03-23 16:00:00 12.6 7 Sur 16 Sudeste 0.2 -- -- 73
2020-03-23 15:00:00 12.4 8 Sudeste 24 Este 0.4 -- -- 69
2020-03-23 14:00:00 13.5 10 Sur 22 Este 0 -- -- 55
2020-03-23 13:00:00 14.2 9 Este 22 Sudeste 0 -- -- 56
2020-03-23 12:00:00 11.5 2 Este 9 Oeste 0 -- -- 67
2020-03-23 11:00:00 9.8 0 Calma 6 Sur 0 -- -- 80
2020-03-23 10:00:00 8.3 2 Sur 9 Sur 0 -- -- 91
2020-03-23 09:00:00 7.1 0 Calma 8 Sudeste 0 -- -- 91
2020-03-23 08:00:00 6.1 4 Sudeste 12 Este 0 -- -- 93
2020-03-23 07:00:00 6.2 2 Este 9 Este 0 -- -- 93
2020-03-23 06:00:00 6.8 0 Calma -- -- 0 -- -- 93
2020-03-23 05:00:00 6.9 0 Calma 12 Nordeste 0 -- -- 91
2020-03-23 04:00:00 6.8 4 Norte 12 Nordeste 0 -- -- 89
2020-03-23 03:00:00 6.7 7 Norte 19 Norte 0 -- -- 89
2020-03-23 02:00:00 6.8 10 Norte 17 Norte 0 -- -- 88
2020-03-23 01:00:00 6.7 3 Nordeste 10 Noroeste 1.4 -- -- 92
2020-03-23 00:00:00 7.2 0 Calma 13 Este 4.6 -- -- 92
2020-03-22 23:00:00 8.7 8 Este 15 Este 1.6 -- -- 90
2020-03-22 22:00:00 9.2 0 Calma 7 Norte 0.2 -- -- 88
2020-03-22 21:00:00 9.4 3 Noroeste 6 Sudoeste 0 -- -- 86
2020-03-22 20:00:00 9.7 0 Calma 19 Norte 0.2 -- -- 85
2020-03-22 19:00:00 10.1 14 Norte 25 Norte 0.6 -- -- 82
2020-03-22 18:00:00 14.2 6 Sur 17 Sudeste 0 -- -- 50
2020-03-22 17:00:00 15.3 8 Sur 18 Sur 0 -- -- 46
2020-03-22 16:00:00 15.4 7 Sudeste 16 Sudeste 0 -- -- 46
2020-03-22 15:00:00 13 8 Sur 16 Sur 0 -- -- 52
2020-03-22 14:00:00 13.6 6 Sudeste 12 Sudeste 0 -- -- 47
2020-03-22 13:00:00 12.9 5 Sur 10 Sudeste 0 -- -- 49
2020-03-22 12:00:00 12.2 6 Sudeste 10 Sur 0 -- -- 53
2020-03-22 11:00:00 10.3 0 Calma 5 Sudeste 0 -- -- 63
2020-03-22 10:00:00 8.1 2 Este 5 Este 0 -- -- 77
2020-03-22 09:00:00 6.2 0 Calma 6 Sur 0 -- -- 86
2020-03-22 08:00:00 4.8 4 Sur 8 Sur 0 -- -- 89
2020-03-22 07:00:00 4.8 0 Calma 7 Sudoeste 0 -- -- 86
2020-03-22 06:00:00 6.5 0 Calma 5 Sur 0 -- -- 83
2020-03-22 05:00:00 6.9 0 Calma 8 Sudeste 0 -- -- 80
2020-03-22 04:00:00 7.1 4 Sur 8 Sudeste 0 -- -- 79
2020-03-22 03:00:00 7 2 Sur 4 Sudoeste 0 -- -- 76
2020-03-22 02:00:00 7 0 Calma 7 Sur 0 -- -- 75
2020-03-22 01:00:00 7.4 2 Sur 4 Sur 0 -- -- 73
2020-03-22 00:00:00 8.2 2 Sudeste 6 Sur 0 -- -- 70
2020-03-21 23:00:00 9.3 3 Sur 16 Sudeste 0 -- -- 68
2020-03-21 22:00:00 9.3 6 Sudeste 13 Sudeste 0 -- -- 65
2020-03-21 21:00:00 9.7 6 Sur 12 Sur 0 -- -- 66
2020-03-21 20:00:00 10.8 3 Sudeste 9 Sudoeste 0 -- -- 63
2020-03-21 19:00:00 13.3 2 Sudoeste 17 Sur 0 -- -- 53
2020-03-21 18:00:00 15.2 9 Sudoeste 21 Sur 0 -- -- 47
2020-03-21 17:00:00 17 8 Sur 22 Sur 0 -- -- 41
2020-03-21 16:00:00 17.4 9 Sur 22 Sudoeste 0 -- -- 40
2020-03-21 15:00:00 17.1 6 Sudeste 20 Sudoeste 0 -- -- 40
2020-03-21 14:00:00 16.1 9 Sudoeste 15 Oeste 0 -- -- 42
2020-03-21 13:00:00 15.1 5 Este 12 Sudeste 0 -- -- 43
2020-03-21 12:00:00 13 5 Sudeste 12 Sudoeste 0 -- -- 56
2020-03-21 11:00:00 9.9 4 Noroeste 12 Nordeste 0 -- -- 66
2020-03-21 10:00:00 8 4 Norte 10 Norte 0 -- -- 72
2020-03-21 09:00:00 5.5 6 Norte 10 Noroeste 0 -- -- 85
2020-03-21 08:00:00 3.6 0 Calma 4 Nordeste 0 -- -- 92
2020-03-21 07:00:00 3 0 Calma 5 Nordeste 0 -- -- 92
2020-03-21 06:00:00 3.1 3 Nordeste 4 Noroeste 0 -- -- 93
2020-03-21 05:00:00 2.5 0 Calma 5 Este 0 -- -- 92
2020-03-21 04:00:00 2.9 0 Calma 4 Sur 0 -- -- 90
2020-03-21 03:00:00 3.2 0 Calma 4 Sur -- -- -- 89
2020-03-21 02:00:00 4.2 2 Nordeste 6 Sudeste 0 -- -- 86
2020-03-21 01:00:00 4.9 3 Sudeste 6 Este 0 -- -- 84
2020-03-21 00:00:00 6.5 0 Calma 8 Norte 0 -- -- 79
2020-03-20 23:00:00 8 4 Nordeste 14 Este 0 -- -- 70
2020-03-20 22:00:00 8.8 5 Este 20 Sudeste 0 -- -- 65
2020-03-20 21:00:00 10 10 Sudeste 21 Sudeste 0 -- -- 61
2020-03-20 20:00:00 10.7 9 Sudeste 24 Sudeste 0 -- -- 60
2020-03-20 19:00:00 12.6 12 Sudeste 26 Este 0 -- -- 54
2020-03-20 18:00:00 15.2 9 Sudeste 22 Este 0 -- -- 46
2020-03-20 17:00:00 16.8 12 Sudeste 25 Sudeste 0 -- -- 40
2020-03-20 16:00:00 17.6 10 Sur 26 Sudeste 0 -- -- 37
2020-03-20 15:00:00 17.9 11 Sudeste 26 Sudeste 0 -- -- 33
2020-03-20 14:00:00 17.2 11 Sudeste 21 Sudeste 0 -- -- 31
2020-03-20 13:00:00 16.2 9 Este 23 Nordeste 0 -- -- 35
2020-03-20 12:00:00 14.9 11 Este 25 Nordeste 0 -- -- 46
2020-03-20 11:00:00 13 13 Nordeste 24 Este 0 -- -- 49
2020-03-20 10:00:00 10.2 4 Norte 9 Nordeste 0 -- -- 59
2020-03-20 09:00:00 8 4 Norte 13 Sudoeste 0 -- -- 73
2020-03-20 08:00:00 5 4 Norte 10 Noroeste 0 -- -- 87
2020-03-20 07:00:00 4.8 0 Calma 5 Este 0 -- -- 85
2020-03-20 06:00:00 5.8 0 Calma 5 Norte 0 -- -- 82
2020-03-20 05:00:00 7.4 0 Calma 13 Este 0 -- -- 74
2020-03-20 04:00:00 8.6 7 Este 14 Este 0 -- -- 66
2020-03-20 03:00:00 7.8 2 Sur 6 Sur 0 -- -- 78
2020-03-20 02:00:00 8.6 3 Sur 5 Sur 0 -- -- 73
2020-03-20 01:00:00 8.6 3 Sur 8 Este 0 -- -- 72
2020-03-20 00:00:00 10 5 Este 13 Sudeste 0 -- -- 64
2020-03-19 23:00:00 11.1 8 Este 18 Sudeste 0 -- -- 58
2020-03-19 22:00:00 11.9 8 Sudeste 17 Sudeste 0 -- -- 57
2020-03-19 21:00:00 12.6 8 Sudeste 19 Sudeste 0 -- -- 56
2020-03-19 20:00:00 13.4 6 Sudeste 13 Sudeste 0 -- -- 60
2020-03-19 19:00:00 14.9 6 Sudeste 20 Este 0 -- -- 48
2020-03-19 18:00:00 16.6 8 Sudeste 23 Sudeste 0 -- -- 41
2020-03-19 17:00:00 18.5 13 Sudeste 32 Este 0 -- -- 33
2020-03-19 16:00:00 19.4 15 Este 28 Este 0 -- -- 33
2020-03-19 15:00:00 20.1 13 Sudeste 31 Este 0 -- -- 29
2020-03-19 14:00:00 19.9 9 Sudeste 16 Sudeste 0 -- -- 29
2020-03-19 13:00:00 17.1 8 Norte 15 Norte 0 -- -- 52
2020-03-19 12:00:00 16 6 Sur 18 Sur 0 -- -- 61
2020-03-19 11:00:00 12.9 4 Sudeste 9 Sudeste 0 -- -- 78
2020-03-19 10:00:00 9.1 4 Sur 9 Sudeste 0 -- -- 95
2020-03-19 09:00:00 6 4 Sur 8 Sur 0 -- -- 98
2020-03-19 08:00:00 4.7 4 Sur 6 Sudeste 0 -- -- 97
2020-03-19 07:00:00 5.1 2 Sur 5 Sur 0 -- -- 97
2020-03-19 06:00:00 5.1 0 Calma 2 Sudeste 0 -- -- 97
2020-03-19 05:00:00 5.2 4 Sudeste 6 Este 0 -- -- 96
2020-03-19 04:00:00 5.5 0 Calma 5 Sudeste 0 -- -- 96
2020-03-19 03:00:00 5.7 0 Calma 2 Sudeste 0 -- -- 95
2020-03-19 02:00:00 6 0 Calma 4 Este 0 -- -- 95
2020-03-19 01:00:00 6.3 0 Calma 5 Este 0 -- -- 94
2020-03-19 00:00:00 6.8 2 Este 5 Sudeste 0 -- -- 93
2020-03-18 23:00:00 7.7 0 Calma 5 Sudeste 0 -- -- 92
2020-03-18 22:00:00 8.8 0 Calma 5 Este 0 -- -- 90
2020-03-18 21:00:00 9.8 0 Calma 3 Sudeste 0 -- -- 86
2020-03-18 20:00:00 11.2 3 Sudeste 8 Este 0 -- -- 82
2020-03-18 19:00:00 13.5 3 Sudoeste 10 Oeste 0 -- -- 73
2020-03-18 18:00:00 14.8 7 Oeste 14 Oeste 0 -- -- 65
2020-03-18 17:00:00 15.6 8 Oeste 13 Oeste 0 -- -- 63
2020-03-18 16:00:00 15.8 6 Oeste 12 Oeste 0 -- -- 64
2020-03-18 15:00:00 15.9 5 Oeste 10 Oeste 0 -- -- 62
2020-03-18 14:00:00 15.7 4 Sur 10 Sur 0 -- -- 58
2020-03-18 13:00:00 14.3 4 Sudeste 9 Sur 0 -- -- 63
2020-03-18 12:00:00 11.3 2 Sudeste 5 Sudeste 0 -- -- 79
2020-03-18 11:00:00 8.5 0 Calma 3 Sudeste 0 -- -- 94
2020-03-18 10:00:00 6.5 0 Calma 4 Sur 0 -- -- 98
2020-03-18 09:00:00 4.9 0 Calma 4 Sudoeste 0 -- -- 98
2020-03-18 08:00:00 4 0 Calma 4 Sudoeste 0 -- -- 98
2020-03-18 07:00:00 4 0 Calma -- -- 0 -- -- 98
2020-03-18 06:00:00 4.3 0 Calma -- -- 0 -- -- 97
2020-03-18 05:00:00 4.5 0 Calma -- -- 0 -- -- 97
2020-03-18 04:00:00 5 0 Calma -- -- 0 -- -- 96
2020-03-18 03:00:00 5.5 0 Calma -- -- 0 -- -- 96
2020-03-18 02:00:00 6 0 Calma -- -- 0 -- -- 95
2020-03-18 01:00:00 6.6 0 Calma 2 Este 0 -- -- 94
2020-03-18 00:00:00 7.1 0 Calma -- -- 0 -- -- 93
2020-03-17 23:00:00 8 0 Calma 4 Sudeste 0 -- -- 92
2020-03-17 22:00:00 9.3 0 Calma 5 Sudeste 0 -- -- 90
2020-03-17 21:00:00 10.4 3 Norte 8 Norte 0 -- -- 87
2020-03-17 20:00:00 10.9 0 Calma 5 Este 0 -- -- 87
2020-03-17 19:00:00 12.1 0 Calma -- -- 0 -- -- 82
2020-03-17 18:00:00 12.6 0 Calma 6 Norte 0 -- -- 78
2020-03-17 17:00:00 12.8 2 Norte 5 Nordeste 0 -- -- 77
2020-03-17 16:00:00 12 0 Calma 6 Sur 0 -- -- 80
2020-03-17 15:00:00 11.6 2 Sur 5 Sudoeste 0 -- -- 84
2020-03-17 14:00:00 10.8 2 Sur 5 Sur 0 -- -- 84
2020-03-17 13:00:00 10.1 0 Calma 8 Sudoeste 0 -- -- 84
2020-03-17 12:00:00 9.4 4 Noroeste 8 Noroeste 0 -- -- 84
2020-03-17 11:00:00 8.8 0 Calma 5 Noroeste 0 -- -- 87
2020-03-17 10:00:00 7.9 0 Calma 3 Este 0 -- -- 91
2020-03-17 09:00:00 7.2 0 Calma 5 Sudoeste 0 -- -- 93
2020-03-17 08:00:00 6.8 0 Calma 5 Sudoeste 0 -- -- 94
2020-03-17 07:00:00 6.5 0 Calma 6 Oeste 0 -- -- 93
2020-03-17 06:00:00 6.7 0 Calma 6 Este 0 -- -- 93
2020-03-17 05:00:00 6.9 0 Calma 8 Oeste 0 -- -- 92
2020-03-17 04:00:00 7 0 Calma 4 Este 0 -- -- 92
2020-03-17 03:00:00 7.3 3 Noroeste 10 Oeste 0 -- -- 92
2020-03-17 02:00:00 7 0 Calma 9 Noroeste 0 -- -- 91
2020-03-17 01:00:00 7.3 0 Calma 8 Oeste 0 -- -- 89
2020-03-17 00:00:00 7.9 3 Noroeste 14 Oeste 0 -- -- 86
2020-03-16 23:00:00 9.1 5 Sur 15 Norte 0 -- -- 76
2020-03-16 22:00:00 9.5 5 Noroeste 19 Norte 0 -- -- 72
2020-03-16 21:00:00 9.3 11 Norte 24 Nordeste 0 -- -- 73
2020-03-16 20:00:00 9.9 8 Norte 16 Noroeste 0 -- -- 72
2020-03-16 19:00:00 10.7 5 Noroeste 23 Nordeste 0 -- -- 66
2020-03-16 18:00:00 10.9 7 Nordeste 22 Norte 0 -- -- 65
2020-03-16 17:00:00 10.5 14 Norte 24 Norte 0 -- -- 69
2020-03-16 16:00:00 10 3 Sur 19 Norte 0 -- -- 73
2020-03-16 15:00:00 9.6 11 Nordeste 23 Norte 0 -- -- 70
2020-03-16 14:00:00 9 8 Norte 23 Norte 0 -- -- 71
2020-03-16 13:00:00 8.6 8 Norte 17 Noroeste 0 -- -- 72
2020-03-16 12:00:00 7.8 7 Nordeste 17 Norte 0.2 -- -- 81
2020-03-16 11:00:00 7.3 3 Sudoeste 17 Norte 0 -- -- 84
2020-03-16 10:00:00 6.2 11 Norte 22 Norte 0.8 -- -- 86
2020-03-16 09:00:00 6 12 Norte 19 Norte 1.2 -- -- 85
2020-03-16 08:00:00 6 4 Nordeste 17 Norte 1.2 -- -- 88
2020-03-16 07:00:00 6.1 8 Norte 21 Norte 1.6 -- -- 89
2020-03-16 06:00:00 6.4 6 Norte 17 Noroeste 2.4 -- -- 90
2020-03-16 05:00:00 6.9 13 Norte 22 Norte 3.2 -- -- 89
2020-03-16 04:00:00 8.4 8 Este 17 Sudeste 2.8 -- -- 92
2020-03-16 03:00:00 8.2 3 Norte 22 Este 1.2 -- -- 87
2020-03-16 02:00:00 8.7 9 Este 25 Este 0.4 -- -- 88
2020-03-16 01:00:00 9 9 Nordeste 32 Este 0.4 -- -- 84
2020-03-16 00:00:00 9.4 17 Este 42 Este 0 -- -- 83
2020-03-15 23:00:00 10.2 17 Este 33 Este 0.2 -- -- 83
2020-03-15 22:00:00 11.4 14 Este 32 Este 0 -- -- 75
2020-03-15 21:00:00 11.6 11 Este 33 Sudeste 0 -- -- 77
2020-03-15 20:00:00 12.2 8 Sudeste 30 Sudeste 0.4 -- -- 75
2020-03-15 19:00:00 13.3 13 Sudeste 30 Este 0 -- -- 65
2020-03-15 18:00:00 14.5 12 Sudeste 39 Sudeste 0 -- -- 58
2020-03-15 17:00:00 15.8 19 Este 36 Este 0 -- -- 53
2020-03-15 16:00:00 17.8 13 Este 26 Este 0 -- -- 41
2020-03-15 15:00:00 18.7 9 Sudeste 24 Este 0 -- -- 41
2020-03-15 14:00:00 19.7 16 Sudeste 27 Este 0 -- -- 36
2020-03-15 13:00:00 18.7 12 Este 27 Este 0 -- -- 36
2020-03-15 12:00:00 17.5 13 Este 22 Este 0 -- -- 38
2020-03-15 11:00:00 12.2 2 Norte 7 Noroeste 0 -- -- 53
2020-03-15 10:00:00 8.6 2 Sudeste 5 Sudeste 0 -- -- 69
2020-03-15 09:00:00 4.6 0 Calma 4 Este 0 -- -- 93
2020-03-15 08:00:00 2.2 0 Calma 6 Este 0 -- -- 94
2020-03-15 07:00:00 1.5 5 Este 8 Este 0 -- -- 93
2020-03-15 06:00:00 1.7 0 Calma 8 Sudeste 0 -- -- 92
2020-03-15 05:00:00 2 0 Calma 5 Sudeste 0 -- -- 91
2020-03-15 04:00:00 2.4 2 Sudeste 7 Sudeste 0 -- -- 91
2020-03-15 03:00:00 2.2 3 Sudeste 5 Sudeste 0 -- -- 89
2020-03-15 02:00:00 2.7 2 Sur 7 Este 0 -- -- 88
2020-03-15 01:00:00 3.6 0 Calma 5 Norte 0 -- -- 85
2020-03-15 00:00:00 4 4 Este 8 Este 0 -- -- 83
2020-03-14 23:00:00 5.3 0 Calma 6 Este 0 -- -- 78
2020-03-14 22:00:00 7.1 2 Sur 8 Sudeste 0 -- -- 73
2020-03-14 21:00:00 8.9 2 Nordeste 8 Sudeste 0 -- -- 63
2020-03-14 20:00:00 11.6 5 Noroeste 8 Noroeste 0 -- -- 50
2020-03-14 19:00:00 13.4 4 Sudoeste 24 Oeste 0 -- -- 44
2020-03-14 18:00:00 16 14 Oeste 23 Oeste 0 -- -- 34
2020-03-14 17:00:00 17.2 13 Oeste 26 Oeste 0 -- -- 30
2020-03-14 16:00:00 16.8 14 Oeste 24 Oeste 0 -- -- 35
2020-03-14 15:00:00 16.2 10 Oeste 18 Sudoeste 0 -- -- 42
2020-03-14 14:00:00 14.7 8 Noroeste 16 Noroeste 0 -- -- 47
2020-03-14 13:00:00 13.2 9 Oeste 16 Oeste 0 -- -- 59
2020-03-14 12:00:00 11.2 7 Noroeste 21 Oeste 0 -- -- 64
2020-03-14 11:00:00 8.9 5 Oeste 14 Oeste 0 -- -- 79
2020-03-14 10:00:00 6.9 4 Sudoeste 12 Oeste 0 -- -- 87
2020-03-14 09:00:00 5.7 7 Sudoeste 11 Sudoeste 0 -- -- 91
2020-03-14 08:00:00 5 3 Noroeste 13 Noroeste 0 -- -- 92
2020-03-14 07:00:00 4.6 3 Sudoeste 16 Oeste 0 -- -- 92
2020-03-14 06:00:00 5.7 4 Oeste 10 Oeste 0 -- -- 88
2020-03-14 05:00:00 7 2 Sur 14 Noroeste 0 -- -- 84
2020-03-14 04:00:00 7.7 7 Sudoeste 13 Oeste 0 -- -- 82
2020-03-14 03:00:00 8 4 Oeste 12 Oeste 0 -- -- 81
2020-03-14 02:00:00 8.6 4 Oeste 14 Oeste 0 -- -- 80
2020-03-14 01:00:00 8.8 2 Sur 20 Noroeste 0 -- -- 78
2020-03-14 00:00:00 9.2 8 Oeste 13 Oeste 0 -- -- 80
2020-03-13 23:00:00 9.4 0 Calma 6 Sudoeste 0 -- -- 78
2020-03-13 22:00:00 9.6 0 Calma 10 Noroeste 0 -- -- 78
2020-03-13 21:00:00 9.9 4 Nordeste 21 Oeste 0 -- -- 77
2020-03-13 20:00:00 10.5 12 Oeste 20 Noroeste 0 -- -- 75
2020-03-13 19:00:00 11.2 8 Oeste 21 Oeste 0 -- -- 73
2020-03-13 18:00:00 12 12 Oeste 24 Oeste 0 -- -- 69
2020-03-13 17:00:00 12.6 15 Oeste 23 Oeste 0 -- -- 68
2020-03-13 16:00:00 13.8 9 Oeste 17 Oeste 0 -- -- 65
2020-03-13 15:00:00 14.2 8 Oeste 15 Oeste 0 -- -- 65
2020-03-13 14:00:00 13.1 6 Oeste 12 Oeste 0 -- -- 68
2020-03-13 13:00:00 11.8 0 Calma 14 Sudoeste 0 -- -- 69
2020-03-13 12:00:00 11.3 8 Oeste 17 Oeste 0 -- -- 70
2020-03-13 11:00:00 11.9 3 Sur 10 Oeste 0 -- -- 69
2020-03-13 10:00:00 10.3 8 Oeste 19 Oeste 0 -- -- 76
2020-03-13 09:00:00 8.6 5 Sudoeste 13 Nordeste 0 -- -- 88
2020-03-13 08:00:00 8.1 2 Sudeste 15 Oeste 0 -- -- 91
2020-03-13 07:00:00 7.8 10 Oeste 18 Oeste 0 -- -- 91
2020-03-13 06:00:00 8.1 0 Calma 7 Este 0 -- -- 90
2020-03-13 05:00:00 8.6 4 Nordeste 8 Sudeste 0 -- -- 89
2020-03-13 04:00:00 8.9 2 Sudeste 21 Oeste 0 -- -- 87
2020-03-13 03:00:00 9.7 10 Oeste 22 Este 0 -- -- 88
2020-03-13 02:00:00 10.3 7 Este 20 Este 0.2 -- -- 86
2020-03-13 01:00:00 10.5 7 Este 12 Este 0 -- -- 84
2020-03-13 00:00:00 11.4 9 Oeste 23 Noroeste 0 -- -- 78
2020-03-12 23:00:00 12.1 4 Oeste 10 Oeste 0 -- -- 77
2020-03-12 22:00:00 12.8 6 Noroeste 16 Noroeste 0 -- -- 75
2020-03-12 21:00:00 14 5 Oeste 15 Este 0 -- -- 72
2020-03-12 20:00:00 15.8 5 Noroeste 15 Oeste 0 -- -- 68
2020-03-12 19:00:00 17.9 9 Oeste 24 Oeste 0 -- -- 60
2020-03-12 18:00:00 21.8 9 Sudoeste 14 Sudoeste 0 -- -- 41
2020-03-12 17:00:00 24.1 5 Sur 14 Sudoeste 0 -- -- 28
2020-03-12 16:00:00 24.9 7 Sudeste 15 Sudeste 0 -- -- 26
2020-03-12 15:00:00 25.1 9 Sur 17 Sur 0 -- -- 27
2020-03-12 14:00:00 24.6 9 Sur 14 Sur 0 -- -- 28
2020-03-12 13:00:00 23.4 7 Sur 13 Sudoeste 0 -- -- 30
2020-03-12 12:00:00 19.3 2 Sudeste 9 Sur 0 -- -- 38
2020-03-12 11:00:00 14.5 5 Sur 9 Sur 0 -- -- 51
2020-03-12 10:00:00 10.8 0 Calma 3 Sudeste 0 -- -- 69
2020-03-12 09:00:00 6.9 0 Calma 6 Sudoeste 0 -- -- 80
2020-03-12 08:00:00 4.3 0 Calma 4 Sudeste 0 -- -- 88
2020-03-12 07:00:00 4.2 0 Calma 5 Sudeste 0 -- -- 86
2020-03-12 06:00:00 4.6 0 Calma 5 Oeste 0 -- -- 86
2020-03-12 05:00:00 5.1 2 Sudeste 6 Sudeste 0 -- -- 83
2020-03-12 04:00:00 5.8 0 Calma 4 Sudeste 0 -- -- 81
2020-03-12 03:00:00 6.4 0 Calma 3 Sudeste 0 -- -- 80
2020-03-12 02:00:00 6.7 0 Calma 4 Sudoeste 0 -- -- 78
2020-03-12 01:00:00 7 0 Calma 4 Sudoeste 0 -- -- 77
2020-03-12 00:00:00 7.4 0 Calma 7 Este 0 -- -- 74
2020-03-11 23:00:00 7.8 0 Calma 4 Sudeste 0 -- -- 69
2020-03-11 22:00:00 8.9 0 Calma 8 Este 0 -- -- 65
2020-03-11 21:00:00 10.8 4 Sudeste 7 Sudeste 0 -- -- 58
2020-03-11 20:00:00 13.6 4 Sur 9 Este 0 -- -- 47
2020-03-11 19:00:00 18.1 3 Sur 10 Oeste 0 -- -- 34
2020-03-11 18:00:00 21.8 7 Oeste 19 Oeste 0 -- -- 24
2020-03-11 17:00:00 22.6 11 Oeste 20 Oeste 0 -- -- 22
2020-03-11 16:00:00 22.5 12 Oeste 22 Noroeste 0 -- -- 23
2020-03-11 15:00:00 22.5 9 Oeste 15 Oeste 0 -- -- 27
2020-03-11 14:00:00 20.8 4 Norte 11 Oeste 0 -- -- 34
2020-03-11 13:00:00 18.7 3 Oeste 10 Norte 0 -- -- 32
2020-03-11 12:00:00 16.1 4 Norte 10 Oeste 0 -- -- 36
2020-03-11 11:00:00 11 3 Sur 6 Este 0 -- -- 40
2020-03-11 10:00:00 6.7 2 Este 6 Norte 0 -- -- 65
2020-03-11 09:00:00 2.6 0 Calma 6 Nordeste 0 -- -- 81
2020-03-11 08:00:00 0.3 0 Calma 3 Nordeste 0 -- -- 88
2020-03-11 07:00:00 0.5 0 Calma 5 Nordeste 0 -- -- 86
2020-03-11 06:00:00 0.8 0 Calma 5 Sudeste 0 -- -- 83
2020-03-11 05:00:00 1.2 0 Calma 4 Nordeste 0 -- -- 82
2020-03-11 04:00:00 2 0 Calma 4 Nordeste 0 -- -- 80
2020-03-11 03:00:00 2.7 0 Calma 5 Oeste 0 -- -- 73
2020-03-11 02:00:00 3.5 3 Sudeste 6 Sudeste 0 -- -- 71
2020-03-11 01:00:00 5.1 0 Calma 8 Nordeste 0 -- -- 66
2020-03-11 00:00:00 5.6 2 Sudeste 8 Sudeste 0 -- -- 63
2020-03-10 23:00:00 6.8 2 Nordeste 8 Este 0 -- -- 65
2020-03-10 22:00:00 7.4 0 Calma 5 Este 0 -- -- 66
2020-03-10 21:00:00 9.5 3 Sudeste 8 Sudeste 0 -- -- 58
2020-03-10 20:00:00 12.5 3 Sudeste 10 Oeste 0 -- -- 44
2020-03-10 19:00:00 15.6 4 Nordeste 16 Oeste 0 -- -- 34
2020-03-10 18:00:00 18.6 5 Sudoeste 19 Oeste 0 -- -- 32
2020-03-10 17:00:00 20.1 9 Oeste 21 Oeste 0 -- -- 29
2020-03-10 16:00:00 19.4 15 Oeste 27 Oeste 0 -- -- 29
2020-03-10 15:00:00 18.4 7 Nordeste 13 Nordeste 0 -- -- 32
2020-03-10 14:00:00 16.6 6 Nordeste 13 Sudeste 0 -- -- 36
2020-03-10 13:00:00 14.1 3 Este 8 Nordeste 0 -- -- 39
2020-03-10 12:00:00 11.1 4 Este 8 Nordeste 0 -- -- 45
2020-03-10 11:00:00 6.6 0 Calma 5 Sudeste 0 -- -- 75
2020-03-10 10:00:00 4.3 0 Calma 5 Nordeste 0 -- -- 82
2020-03-10 09:00:00 2.7 4 Norte 8 Nordeste 0 -- -- 88
2020-03-10 08:00:00 1 0 Calma 4 Sudeste 0 -- -- 90
2020-03-10 07:00:00 1.1 0 Calma 7 Sur 0 -- -- 89
2020-03-10 06:00:00 1.5 3 Sur 9 Sudeste 0 -- -- 88
2020-03-10 05:00:00 1.6 3 Sur 10 Sudeste 0 -- -- 87
2020-03-10 04:00:00 2.3 4 Sur 14 Este 0 -- -- 83
2020-03-10 03:00:00 2.8 3 Sur 11 Este 0 -- -- 81
2020-03-10 02:00:00 3.2 4 Norte 13 Este 0 -- -- 80
2020-03-10 01:00:00 3.7 3 Este 9 Nordeste 0 -- -- 78
2020-03-10 00:00:00 5 4 Sudoeste 15 Sudeste 0 -- -- 74
2020-03-09 23:00:00 5.6 9 Sur 31 Sudoeste 0 -- -- 69
2020-03-09 22:00:00 6.1 13 Sudoeste 27 Noroeste 0 -- -- 66
2020-03-09 21:00:00 6.2 8 Noroeste 34 Oeste 0 -- -- 64
2020-03-09 20:00:00 7.3 12 Noroeste 36 Oeste 0 -- -- 55
2020-03-09 19:00:00 8.2 17 Oeste 40 Oeste 0 -- -- 50
2020-03-09 18:00:00 10 18 Oeste 43 Oeste 0 -- -- 38
2020-03-09 17:00:00 10.7 20 Oeste 54 Oeste 0 -- -- 39
2020-03-09 16:00:00 11.5 20 Oeste 51 Noroeste 0 -- -- 32
2020-03-09 15:00:00 12 26 Oeste 46 Noroeste 0 -- -- 35
2020-03-09 14:00:00 11.4 24 Oeste 51 Noroeste 0 -- -- 35
2020-03-09 13:00:00 11.4 27 Oeste 49 Noroeste 0 -- -- 37
2020-03-09 12:00:00 11.1 22 Oeste 55 Oeste 0 -- -- 43
2020-03-09 11:00:00 9.4 26 Oeste 48 Noroeste 0 -- -- 52
2020-03-09 10:00:00 8 18 Oeste 33 Oeste 0 -- -- 58
2020-03-09 09:00:00 6.5 19 Oeste 36 Oeste 0 -- -- 64
2020-03-09 08:00:00 4.3 10 Oeste 27 Oeste 0 -- -- 80
2020-03-09 07:00:00 4.8 14 Oeste 28 Oeste 0 -- -- 76
2020-03-09 06:00:00 5.1 13 Oeste 34 Oeste 0 -- -- 76
2020-03-09 05:00:00 5.8 13 Oeste 37 Oeste 0 -- -- 73
2020-03-09 04:00:00 6.2 8 Oeste 24 Oeste 0 -- -- 69
2020-03-09 03:00:00 7 4 Norte 19 Noroeste 0 -- -- 72
2020-03-09 02:00:00 7.3 8 Oeste 21 Oeste 0 -- -- 73
2020-03-09 01:00:00 8.1 12 Oeste 28 Oeste 0 -- -- 70
2020-03-09 00:00:00 4.7 0 Calma 8 Nordeste 0 -- -- 91
2020-03-08 23:00:00 5.3 0 Calma 9 Sudoeste 0 -- -- 88
2020-03-08 22:00:00 6.1 3 Sudeste 10 Norte 0 -- -- 86
2020-03-08 21:00:00 7.4 3 Este 8 Oeste 0 -- -- 82
2020-03-08 20:00:00 9.5 2 Sur 11 Oeste 0 -- -- 75
2020-03-08 19:00:00 11.3 3 Oeste 18 Noroeste 0 -- -- 67
2020-03-08 18:00:00 12.7 10 Noroeste 31 Oeste 0 -- -- 59
2020-03-08 17:00:00 13.2 16 Oeste 30 Oeste 0 -- -- 54
2020-03-08 16:00:00 14.4 18 Oeste 30 Noroeste 0 -- -- 46
2020-03-08 15:00:00 14.3 7 Sudoeste 24 Norte 0 -- -- 44
2020-03-08 14:00:00 12.3 7 Oeste 22 Noroeste 0 -- -- 52
2020-03-08 13:00:00 10.9 5 Este 11 Norte 0 -- -- 59
2020-03-08 12:00:00 9.1 4 Norte 9 Norte 0 -- -- 60
2020-03-08 11:00:00 5.7 4 Este 9 Nordeste 0 -- -- 76
2020-03-08 10:00:00 2.3 2 Este 8 Este 0 -- -- 92
2020-03-08 09:00:00 -0.3 0 Calma 5 Sudoeste 0 -- -- 96
2020-03-08 08:00:00 -1.2 0 Calma 6 Sudoeste 0 -- -- 95
2020-03-08 07:00:00 -1.2 0 Calma 5 Este 0 -- -- 94
2020-03-08 06:00:00 -0.5 0 Calma 6 Noroeste 0 -- -- 93
2020-03-08 05:00:00 0.3 0 Calma 7 Noroeste 0 -- -- 93
2020-03-08 04:00:00 1.4 2 Sudoeste 4 Sudoeste 0 -- -- 93
2020-03-08 03:00:00 1.5 0 Calma 9 Oeste 0 -- -- 91
2020-03-08 02:00:00 2.4 5 Oeste 9 Oeste 0 -- -- 90
2020-03-08 01:00:00 3.1 5 Noroeste 10 Noroeste 0 -- -- 92
2020-03-08 00:00:00 3.2 3 Sudeste 7 Este 0 -- -- 90
2020-03-07 23:00:00 4.5 0 Calma 9 Nordeste 0 -- -- 87
2020-03-07 22:00:00 5.5 3 Norte 14 Noroeste 0 -- -- 83
2020-03-07 21:00:00 6.4 5 Oeste 16 Noroeste 0 -- -- 78
2020-03-07 20:00:00 7.9 10 Oeste 33 Oeste 0 -- -- 67
2020-03-07 19:00:00 8.7 15 Oeste 35 Oeste 0 -- -- 63
2020-03-07 18:00:00 10.3 18 Oeste 41 Oeste 0 -- -- 58
2020-03-07 17:00:00 11.2 22 Oeste 44 Oeste 0 -- -- 56
2020-03-07 16:00:00 11.6 25 Oeste 46 Oeste 0 -- -- 53
2020-03-07 15:00:00 11.8 22 Oeste 38 Oeste 0 -- -- 51
2020-03-07 14:00:00 9.1 18 Sudoeste 36 Sudoeste 0 -- -- 61
2020-03-07 13:00:00 9.8 10 Sudoeste 26 Noroeste 0 -- -- 58
2020-03-07 12:00:00 9.9 16 Norte 41 Norte 0 -- -- 50
2020-03-07 11:00:00 6.8 5 Sur 24 Sudeste 0 -- -- 68
2020-03-07 10:00:00 3.7 6 Sudeste 15 Sudoeste 0 -- -- 83
2020-03-07 09:00:00 1.6 6 Sur 20 Sur 0 -- -- 90
2020-03-07 08:00:00 1.2 3 Sudoeste 19 Noroeste 0 -- -- 86
2020-03-07 07:00:00 -0.2 4 Nordeste 12 Nordeste 0 -- -- 93
2020-03-07 06:00:00 -0.5 4 Nordeste 9 Nordeste 0 -- -- 94
2020-03-07 05:00:00 -0.2 3 Nordeste 11 Nordeste 0 -- -- 94
2020-03-07 04:00:00 0.4 3 Nordeste 8 Nordeste 0 -- -- 93
2020-03-07 03:00:00 0.6 6 Oeste 12 Sudoeste 0 -- -- 92
2020-03-07 02:00:00 0.6 3 Nordeste 8 Este 0 -- -- 96
2020-03-07 01:00:00 0.8 0 Calma 14 Oeste 0 -- -- 96
2020-03-07 00:00:00 0.5 0 Calma 9 Oeste 0.8 -- -- 97
2020-03-06 23:00:00 0.7 0 Calma 6 Oeste 2.6 -- -- 97
2020-03-06 22:00:00 0.3 0 Calma 14 Oeste 2 -- -- 96
2020-03-06 21:00:00 0.6 10 Oeste 27 Noroeste 0.6 -- -- 94
2020-03-06 20:00:00 0.7 11 Oeste 19 Oeste 1 -- -- 96
2020-03-06 19:00:00 0.5 4 Noroeste 24 Oeste 1.8 -- -- 96
2020-03-06 18:00:00 0.8 8 Oeste 22 Noroeste 1.4 -- -- 94
2020-03-06 17:00:00 1.1 11 Oeste 25 Oeste 2.2 -- -- 94
2020-03-06 16:00:00 2.3 11 Oeste 27 Oeste 0.6 -- -- 90
2020-03-06 15:00:00 1.9 12 Oeste 42 Oeste 1 -- -- 92
2020-03-06 14:00:00 3.7 23 Oeste 41 Oeste 1.2 -- -- 82
2020-03-06 13:00:00 1.2 17 Oeste 36 Oeste 1.2 -- -- 90
2020-03-06 12:00:00 2.6 21 Oeste 48 Oeste 0.4 -- -- 89
2020-03-06 11:00:00 3.4 12 Oeste 42 Oeste 0 -- -- 87
2020-03-06 10:00:00 3.4 15 Oeste 38 Sudoeste 0.2 -- -- 85
2020-03-06 09:00:00 2.9 17 Sudoeste 32 Sudoeste 0 -- -- 86
2020-03-06 08:00:00 1.9 6 Oeste 16 Sur 0 -- -- 89
2020-03-06 07:00:00 0.9 4 Sur 10 Sur 0 -- -- 94
2020-03-06 06:00:00 0.5 5 Sudeste 11 Sudeste 0 -- -- 93
2020-03-06 05:00:00 0.1 2 Sur 6 Sudeste 0 -- -- 93
2020-03-06 04:00:00 0.3 3 Sur 10 Este 0 -- -- 92
2020-03-06 03:00:00 1.2 2 Sudeste 9 Oeste 0 -- -- 89
2020-03-06 02:00:00 2.2 7 Sudoeste 15 Oeste 0 -- -- 87
2020-03-06 01:00:00 2.3 5 Norte 12 Nordeste 0 -- -- 87
2020-03-06 00:00:00 3.5 5 Oeste 28 Sudoeste 0 -- -- 81
2020-03-05 23:00:00 3.9 16 Sudoeste 34 Sudoeste 0 -- -- 78
2020-03-05 22:00:00 4.3 17 Sudoeste 38 Oeste 0 -- -- 77
2020-03-05 21:00:00 5.3 17 Oeste 33 Oeste 0 -- -- 72
2020-03-05 20:00:00 5.9 8 Oeste 31 Sudoeste 0 -- -- 77
2020-03-05 19:00:00 6.3 11 Sudoeste 35 Sudoeste 0 -- -- 74
2020-03-05 18:00:00 8 18 Oeste 37 Oeste 0 -- -- 75
2020-03-05 17:00:00 7.9 12 Sudoeste 32 Sudoeste 0.6 -- -- 85
2020-03-05 16:00:00 10.4 16 Oeste 44 Oeste 0 -- -- 68
2020-03-05 15:00:00 8.7 22 Oeste 53 Sudoeste 0.8 -- -- 72
2020-03-05 14:00:00 9 13 Oeste 45 Oeste 1.4 -- -- 89
2020-03-05 13:00:00 9.4 5 Sur 15 Sur 0.4 -- -- 98
2020-03-05 12:00:00 8.2 2 Sudeste 5 Este 1.2 -- -- 98
2020-03-05 11:00:00 7.2 0 Calma 4 Sudoeste 0.2 -- -- 98
2020-03-05 10:00:00 6.8 0 Calma 8 Sudoeste 0.6 -- -- 98
2020-03-05 09:00:00 6.4 0 Calma 6 Norte 0.2 -- -- 98
2020-03-05 08:00:00 5.9 0 Calma 5 Sur 0 -- -- 98
2020-03-05 07:00:00 5.3 0 Calma 6 Nordeste 0 -- -- 98
2020-03-05 06:00:00 4.9 0 Calma 6 Nordeste 0 -- -- 97
2020-03-05 05:00:00 5 3 Sudoeste 6 Sudoeste 0 -- -- 97
2020-03-05 04:00:00 5 0 Calma 3 Nordeste 0 -- -- 96
2020-03-05 03:00:00 5.7 0 Calma 5 Norte 0 -- -- 95
2020-03-05 02:00:00 6.5 0 Calma 5 Nordeste 0 -- -- 94
2020-03-05 01:00:00 7.1 0 Calma 4 Sudeste 0 -- -- 93
2020-03-05 00:00:00 8.2 0 Calma 9 Oeste 0 -- -- 90
2020-03-04 23:00:00 8.9 2 Norte 4 Norte 0 -- -- 90
2020-03-04 22:00:00 9.2 2 Norte 5 Noroeste 0 -- -- 89
2020-03-04 21:00:00 9.3 3 Sudeste 8 Sur 0 -- -- 88
2020-03-04 20:00:00 10.8 5 Noroeste 12 Noroeste 0 -- -- 82
2020-03-04 19:00:00 12.1 3 Sudoeste 19 Sudoeste 0 -- -- 75
2020-03-04 18:00:00 14.1 10 Sudoeste 31 Oeste 0 -- -- 67
2020-03-04 17:00:00 14.8 13 Oeste 32 Sudoeste 0 -- -- 65
2020-03-04 16:00:00 15.1 14 Oeste 33 Oeste 0 -- -- 66
2020-03-04 15:00:00 13.8 15 Oeste 37 Sudoeste 0 -- -- 70
2020-03-04 14:00:00 12.9 3 Este 12 Este 0 -- -- 78
2020-03-04 13:00:00 10.5 3 Sudeste 9 Nordeste 0 -- -- 89
2020-03-04 12:00:00 8.2 3 Este 6 Sur 0 -- -- 94
2020-03-04 11:00:00 6.8 2 Sudeste 4 Sudoeste 0.2 -- -- 96
2020-03-04 10:00:00 5.6 0 Calma 4 Sur 1.2 -- -- 97
2020-03-04 09:00:00 4.4 0 Calma 7 Noroeste 1.4 -- -- 96
2020-03-04 08:00:00 3.9 0 Calma 5 Norte 1 -- -- 95
2020-03-04 07:00:00 3.5 0 Calma 4 Sur 0.4 -- -- 94
2020-03-04 06:00:00 3.5 0 Calma 7 Sur 0 -- -- 92
2020-03-04 05:00:00 3.1 0 Calma 8 Sudoeste 0 -- -- 91
2020-03-04 04:00:00 2.5 3 Sur 7 Sudeste 0 -- -- 90
2020-03-04 03:00:00 2.8 4 Sudeste 9 Este 0 -- -- 86
2020-03-04 02:00:00 5.9 2 Nordeste 31 Oeste 0 -- -- 73
2020-03-04 01:00:00 5.6 13 Sudoeste 27 Sur 0 -- -- 75
2020-03-04 00:00:00 5.6 10 Oeste 21 Noroeste 0 -- -- 75
2020-03-03 23:00:00 6 11 Noroeste 23 Noroeste 0 -- -- 71
2020-03-03 22:00:00 6 10 Oeste 27 Sudoeste 0 -- -- 73
2020-03-03 21:00:00 6.3 15 Sudoeste 32 Sudoeste 0 -- -- 69
2020-03-03 20:00:00 6.3 13 Sudoeste 24 Oeste 0 -- -- 69
2020-03-03 19:00:00 7.5 12 Oeste 28 Oeste 0 -- -- 68
2020-03-03 18:00:00 8.5 14 Oeste 40 Oeste 0.2 -- -- 69
2020-03-03 17:00:00 4.5 6 Sudoeste 13 Sur 0 -- -- 94
2020-03-03 16:00:00 2.7 4 Noroeste 11 Oeste 0 -- -- 95
2020-03-03 15:00:00 1.6 0 Calma 6 Sudoeste 0.8 -- -- 96
2020-03-03 14:00:00 1.2 3 Sur 10 Sudeste 0.8 -- -- 95
2020-03-03 13:00:00 1.2 0 Calma 8 Oeste 0.8 -- -- 95
2020-03-03 12:00:00 0.9 0 Calma 4 Este 1.8 -- -- 95
2020-03-03 11:00:00 0.6 0 Calma 4 Nordeste 3.2 -- -- 95
2020-03-03 10:00:00 0.8 0 Calma 3 Sudeste 1.4 -- -- 94
2020-03-03 09:00:00 0.8 0 Calma 10 Sur 1.4 -- -- 93
2020-03-03 08:00:00 1.7 4 Sur 9 Sudeste 0.8 -- -- 90
2020-03-03 07:00:00 2.3 4 Sur 15 Oeste 0.2 -- -- 86
2020-03-03 06:00:00 3 6 Sur 17 Sur 0 -- -- 78
2020-03-03 05:00:00 2.7 5 Sur 17 Sur 0 -- -- 79
2020-03-03 04:00:00 2.5 4 Oeste 11 Oeste 0 -- -- 78
2020-03-03 03:00:00 2.1 6 Sudoeste 14 Sudoeste -- -- -- 82
2020-03-03 02:00:00 2 7 Oeste 27 Oeste 0 -- -- 86
2020-03-03 01:00:00 2 8 Oeste 21 Sudoeste 0 -- -- 84
2020-03-03 00:00:00 1.7 5 Oeste 22 Oeste 0 -- -- 85
2020-03-02 23:00:00 1.6 8 Oeste 23 Sudoeste 0 -- -- 88
2020-03-02 22:00:00 1.5 13 Sudoeste 42 Sudoeste 0 -- -- 89
2020-03-02 21:00:00 2.5 13 Oeste 37 Sudoeste 0 -- -- 75
2020-03-02 20:00:00 2.9 12 Oeste 37 Oeste 0 -- -- 77
2020-03-02 19:00:00 3.1 9 Oeste 34 Oeste 0 -- -- 77
2020-03-02 18:00:00 3.9 21 Sudoeste 51 Oeste 0 -- -- 77
2020-03-02 17:00:00 6 23 Sudoeste 51 Sudoeste 0 -- -- 62
2020-03-02 16:00:00 6.7 19 Oeste 37 Sudoeste 0.2 -- -- 68
2020-03-02 15:00:00 4.4 21 Oeste 48 Oeste 0.2 -- -- 80
2020-03-02 14:00:00 8.1 23 Oeste 50 Oeste 0 -- -- 54
2020-03-02 13:00:00 8.5 23 Oeste 48 Noroeste 0 -- -- 55
2020-03-02 12:00:00 6.7 29 Oeste 53 Oeste 0 -- -- 66
2020-03-02 11:00:00 6.2 24 Oeste 51 Sudoeste 0 -- -- 73
2020-03-02 10:00:00 6.5 20 Sudoeste 41 Sudoeste 0 -- -- 79
2020-03-02 09:00:00 6.3 18 Oeste 36 Sudoeste 0 -- -- 83
2020-03-02 08:00:00 6.1 19 Sudoeste 44 Oeste 0 -- -- 81
2020-03-02 07:00:00 7 19 Oeste 77 Noroeste 3.4 -- -- 86
2020-03-02 06:00:00 10.4 10 Sur 40 Sudoeste 0 -- -- 80
2020-03-02 05:00:00 8.9 10 Sur 31 Sur 0.2 -- -- 92
2020-03-02 04:00:00 6.1 5 Norte 13 Noroeste 3.4 -- -- 95
2020-03-02 03:00:00 6.5 2 Noroeste 8 Oeste 4 -- -- 94
2020-03-02 02:00:00 7.2 3 Norte 11 Norte 4.2 -- -- 94
2020-03-02 01:00:00 7.4 0 Calma 13 Nordeste 2.6 -- -- 94
2020-03-02 00:00:00 7.8 2 Nordeste 14 Este 1.2 -- -- 91